Home   Weather   Poland   Poznan   Past weeks
Flag for Poland

Past Weather in Poznan, Poland — Yesterday and Last 2 Weeks

Currently: 82 °F. Clear. (Weather station: Poznan Airport, Poland). See more current weather

Past Weather in Poznan — Graph

°F

Poznan Temperature Yesterday

Maximum temperature yesterday: 91 °F (at 3:00 pm)
Minimum temperature yesterday: 61 °F (at 4:30 am)
Average temperature yesterday: 78 °F

High & Low Weather Summary for the Past Weeks

 TemperatureHumidityPressure
High97 °F (Aug 5, 3:30 pm)100% (Aug 10, 5:00 am)30.36 "Hg (Aug 10, 5:00 am)
Low45 °F (Aug 7, 5:00 am)23% (Aug 5, 3:30 pm)29.68 "Hg (Aug 15, 4:00 pm)
Average73 °F59%30.06 "Hg
* Reported Aug 3 8:00 pm — Aug 18 8:00 pm, Poznan. Weather by CustomWeather, © 2022

Note: Actual official high and low records may vary slightly from our data, if they occured in-between our weather recording intervals... More about our weather records

Poznan Weather History for the Previous 24 Hours

Scroll right to see more
 ConditionsComfort  
Time TempWeatherWind HumidityBarometerVisibility
8:00 pm
Thu, Aug 18
84 °FSunny.10 mph45%29.83 "Hg10 mi
7:00 pm88 °FPassing clouds.14 mph40%29.83 "HgN/A
6:30 pm90 °FScattered clouds.12 mph38%29.83 "HgN/A
6:00 pm90 °FPassing clouds.12 mph38%29.83 "HgN/A
5:30 pm91 °FPassing clouds.13 mph36%29.83 "HgN/A
5:00 pm91 °FPassing clouds.10 mph36%29.83 "HgN/A
4:30 pm91 °FPassing clouds.12 mph36%29.83 "HgN/A
4:00 pm91 °FPassing clouds.8 mph32%29.86 "HgN/A
3:00 pm91 °FSunny.12 mph34%29.86 "Hg10 mi
2:00 pm91 °FSunny.9 mph36%29.86 "Hg10 mi
1:00 pm90 °FPassing clouds.9 mph41%29.89 "HgN/A
12:00 pm88 °FPassing clouds.6 mph43%29.89 "HgN/A
11:00 am86 °FPassing clouds.7 mph49%29.92 "HgN/A
10:30 am84 °FPassing clouds.5 mph51%29.92 "HgN/A
10:00 am84 °FPassing clouds.5 mph55%29.89 "HgN/A
9:30 am81 °FSunny.5 mph62%29.89 "Hg10 mi
9:00 am79 °FSunny.6 mph65%29.89 "Hg10 mi
8:30 am77 °FSunny.5 mph69%29.89 "Hg10 mi
8:00 am73 °FSunny.5 mph78%29.89 "Hg10 mi
7:00 am70 °FSunny.5 mph88%29.89 "Hg10 mi
6:30 am70 °FSunny.3 mph83%29.89 "Hg10 mi
6:00 am66 °FSunny.5 mph88%29.89 "Hg10 mi
5:30 am66 °FPassing clouds.3 mph88%29.89 "HgN/A
5:00 am68 °FClear.3 mph88%29.89 "Hg10 mi
4:30 am68 °FClear.6 mph88%29.89 "Hg10 mi
4:00 am68 °FClear.7 mph83%29.89 "Hg10 mi
3:30 am70 °FClear.8 mph78%29.89 "Hg10 mi
3:00 am68 °FClear.3 mph78%29.89 "Hg10 mi
1:30 am72 °FClear.6 mph69%29.89 "Hg10 mi
1:00 am72 °FClear.3 mph69%29.89 "Hg10 mi
12:30 am73 °FClear.7 mph65%29.89 "Hg10 mi
12:00 am73 °FClear.6 mph61%29.89 "Hg10 mi
11:30 pm
Wed, Aug 17
75 °FClear.7 mph57%29.89 "Hg10 mi
11:00 pm75 °FClear.8 mph57%29.89 "Hg10 mi
10:00 pm75 °FClear.6 mph57%29.89 "Hg10 mi
9:00 pm79 °FClear.7 mph51%29.86 "Hg10 mi
Weather by CustomWeather, © 2022

See weather overview